< < Back
Terminal Aerodrome Forecast


Current Version              Previous Versions:   1  2  3  4  5  6  7  8  9  

Terminal Aerodrome Forecast

665
FTAK31 PAJN 172300
TAFAHN
TAF
PAHN 172337Z 1800/1824 29008KT P6SM -SHRA FEW025 BKN040 OVC060
     FM180400 VRB06KT P6SM -RA SCT025 BKN035 OVC060
     FM180900 09010KT P6SM -RA BKN025 OVC050
     FM181400 09010G18KT P6SM -RA BKN025 OVC050
     FM182100 10010KT P6SM VCSH SCT035 BKN070
      AMD LTD TO CLD VIS AND WIND=



Latest METAR

278
SAUS70 KWBC 180400 RRR
MTRAHN
METAR KAHN 180451Z AUTO 09007KT 10SM OVC060 13/02 A3035 RMK AO2 SLP276
T01330017 401890022


USA.gov is the U.S. government's official web portal to all federal, state and local government web resources and services.